Time;durP1;ratioP1;P1;durP2;ratioP2;P2;SDS_P1;SDS_P2;PMS_P1;PMS_P2;Temp;Humidity;BMP_temperature;BMP_pressure;BME280_temperature;BME280_humidity;BME280_pressure;Samples;Min_cycle;Max_cycle;Signal;HPM_P1;HPM_P2
2022/07/08 00:00:41;;;;;;;7.30;1.40;;;;;;;;;;5125251;27;20479;-72
2022/07/08 00:03:08;;;;;;;7.33;1.27;;;;;;;;;;5135102;27;20458;-72
2022/07/08 00:05:36;;;;;;;7.00;1.27;;;;;;;;;;5135810;27;20453;-73
2022/07/08 00:08:04;;;;;;;8.43;1.40;;;;;;;;;;5134427;27;20439;-73
2022/07/08 00:10:31;;;;;;;6.70;1.30;;;;;;;;;;5135015;27;20473;-73
2022/07/08 00:12:58;;;;;;;8.67;1.73;;;;;;;;;;5148216;27;20457;-72
2022/07/08 00:15:26;;;;;;;8.07;1.17;;;;;;;;;;5135475;27;20971;-72
2022/07/08 00:17:53;;;;;;;8.40;1.67;;;;;;;;;;5135067;27;20450;-71
2022/07/08 00:20:20;;;;;;;9.47;1.30;;;;;;;;;;5134248;27;20454;-73
2022/07/08 00:22:47;;;;;;;7.10;1.10;;;18.60;99.90;;;;;;5134872;27;20462;-73
2022/07/08 00:25:15;;;;;;;7.57;1.47;;;17.20;99.90;;;;;;5134446;27;20481;-73
2022/07/08 00:27:42;;;;;;;7.73;1.40;;;17.40;99.90;;;;;;5134808;27;20527;-73
2022/07/08 00:30:10;;;;;;;9.43;1.53;;;17.40;99.90;;;;;;5134496;27;20858;-71
2022/07/08 00:32:37;;;;;;;10.67;1.40;;;17.20;99.90;;;;;;5134466;27;20567;-71
2022/07/08 00:35:05;;;;;;;7.50;1.23;;;17.10;99.90;;;;;;5134092;27;20704;-72
2022/07/08 00:37:32;;;;;;;7.37;1.17;;;17.00;99.90;;;;;;5134513;27;20469;-72
2022/07/08 00:39:59;;;;;;;8.93;1.50;;;16.90;99.90;;;;;;5134001;27;20448;-72
2022/07/08 00:42:27;;;;;;;7.67;1.30;;;17.00;99.90;;;;;;5134668;27;20458;-72
2022/07/08 00:44:54;;;;;;;7.30;1.20;;;17.10;99.90;;;;;;5135339;27;20450;-72
2022/07/08 00:47:21;;;;;;;9.83;1.30;;;17.10;99.90;;;;;;5134232;27;20451;-72
2022/07/08 00:49:50;;;;;;;10.60;1.70;;;17.10;99.90;;;;;;5134784;27;20438;-69
2022/07/08 00:52:17;;;;;;;8.70;1.53;;;17.00;99.90;;;;;;5133598;27;20482;-71
2022/07/08 00:54:44;;;;;;;8.60;1.73;;;;;;;;;;5134194;27;20454;-71
2022/07/08 00:57:12;;;;;;;10.20;1.70;;;;;;;;;;5133432;27;20458;-71
2022/07/08 00:59:41;;;;;;;12.30;1.70;;;;;;;;;;5133837;27;20443;-71
2022/07/08 01:02:08;;;;;;;9.27;1.87;;;;;;;;;;5133290;27;20483;-71
2022/07/08 01:04:36;;;;;;;8.60;2.10;;;;;;;;;;5133298;27;20451;-71
2022/07/08 01:07:03;;;;;;;7.97;2.17;;;;;;;;;;5132724;27;20536;-71
2022/07/08 01:09:30;;;;;;;9.23;1.73;;;;;;;;;;5134154;27;20431;-71
2022/07/08 01:11:57;;;;;;;8.00;1.73;;;;;;;;;;5134199;27;20520;-71
2022/07/08 01:14:25;;;;;;;11.13;1.90;;;;;;;;;;5133940;27;20457;-71
2022/07/08 01:16:53;;;;;;;8.47;2.23;;;;;;;;;;5134260;27;20457;-71
2022/07/08 01:19:21;;;;;;;8.90;1.67;;;;;;;;;;5133743;27;20449;-73
2022/07/08 01:21:50;;;;;;;11.40;2.40;;;;;;;;;;5134149;27;20808;-71
2022/07/08 01:24:17;;;;;;;8.63;1.73;;;;;;;;;;5133260;27;20481;-73
2022/07/08 01:26:45;;;;;;;9.07;1.93;;;;;;;;;;5133430;27;20533;-73
2022/07/08 01:29:12;;;;;;;10.43;1.93;;;;;;;;;;5132673;27;20449;-72
2022/07/08 01:31:40;;;;;;;8.10;1.77;;;;;;;;;;5133471;27;20492;-72
2022/07/08 01:34:07;;;;;;;8.80;2.37;;;;;;;;;;5133122;27;20495;-72
2022/07/08 01:36:34;;;;;;;9.83;1.40;;;;;;;;;;5133621;27;20449;-71
2022/07/08 01:39:02;;;;;;;8.97;1.73;;;;;;;;;;5132619;27;20447;-71
2022/07/08 01:41:29;;;;;;;11.43;1.70;;;;;;;;;;5133675;27;20790;-72
2022/07/08 01:43:58;;;;;;;9.10;1.50;;;;;;;;;;5133054;27;20523;-71
2022/07/08 01:46:25;;;;;;;8.10;1.80;;;;;;;;;;5133824;27;20453;-71
2022/07/08 01:48:52;;;;;;;10.97;2.13;;;;;;;;;;5133136;27;20452;-71
2022/07/08 01:51:19;;;;;;;10.03;2.07;;;;;;;;;;5129309;27;20472;-71
2022/07/08 01:53:47;;;;;;;8.53;1.53;;;;;;;;;;5133317;27;20457;-71
2022/07/08 01:56:15;;;;;;;7.90;1.40;;;;;;;;;;5132781;27;20797;-72
2022/07/08 01:58:42;;;;;;;11.10;1.57;;;;;;;;;;5132575;27;20448;-73
2022/07/08 02:01:09;;;;;;;9.77;1.60;;;;;;;;;;5132684;27;20798;-71
2022/07/08 02:03:36;;;;;;;15.57;1.67;;;;;;;;;;5133184;27;20530;-71
2022/07/08 02:06:04;;;;;;;8.63;1.60;;;;;;;;;;5132643;27;20444;-71
2022/07/08 02:08:31;;;;;;;7.67;1.50;;;;;;;;;;5132529;27;20447;-72
2022/07/08 02:13:44;;;;;;;9.07;2.00;;;;;;;;;;5132233;27;20413;-72
2022/07/08 02:16:11;;;;;;;8.40;1.93;;;;;;;;;;5132165;27;20444;-73
2022/07/08 02:18:38;;;;;;;7.40;1.20;;;;;;;;;;5132066;27;20448;-72
2022/07/08 02:21:06;;;;;;;8.67;1.67;;;;;;;;;;5132218;27;20444;-72
2022/07/08 02:23:33;;;;;;;7.90;1.50;;;;;;;;;;5132407;27;20448;-71
2022/07/08 02:26:00;;;;;;;11.23;2.10;;;;;;;;;;5132282;27;20448;-71
2022/07/08 02:28:27;;;;;;;8.70;1.47;;;16.80;99.90;;;;;;5124185;27;20448;-71
2022/07/08 02:30:56;;;;;;;7.97;1.43;;;15.50;99.90;;;;;;5132798;27;20525;-71
2022/07/08 02:33:22;;;;;;;7.40;1.57;;;15.30;1.00;;;;;;5132760;27;20505;-73
2022/07/08 02:35:49;;;;;;;8.80;1.23;;;15.20;1.00;;;;;;5132144;27;20916;-73
2022/07/08 02:38:16;;;;;;;8.47;1.63;;;15.50;99.90;;;;;;5131770;27;20473;-73
2022/07/08 02:40:43;;;;;;;7.80;1.33;;;15.20;1.00;;;;;;5132776;27;20790;-72
2022/07/08 02:43:10;;;;;;;8.93;1.50;;;15.30;1.00;;;;;;5132055;27;20443;-73
2022/07/08 02:45:38;;;;;;;7.80;1.40;;;15.10;1.00;;;;;;5132132;27;20455;-72
2022/07/08 02:48:06;;;;;;;8.23;1.63;;;15.30;1.00;;;;;;5131708;27;20454;-72
2022/07/08 02:50:33;;;;;;;8.07;1.80;;;15.00;1.00;;;;;;5120548;27;20443;-71
2022/07/08 02:53:00;;;;;;;9.10;1.80;;;15.00;1.00;;;;;;5131543;27;20809;-71
2022/07/08 02:55:27;;;;;;;8.00;1.87;;;15.00;1.00;;;;;;5132608;27;20452;-71
2022/07/08 02:57:54;;;;;;;7.40;1.87;;;14.80;1.00;;;;;;5131756;27;20506;-72
2022/07/08 03:00:22;;;;;;;8.43;1.90;;;14.80;1.00;;;;;;5131967;27;20455;-71
2022/07/08 03:02:49;;;;;;;7.60;1.30;;;15.20;1.00;;;;;;5131681;27;20555;-71
2022/07/08 03:05:17;;;;;;;7.60;1.60;;;15.20;1.00;;;;;;5131468;27;20677;-71
2022/07/08 03:07:44;;;;;;;8.00;1.53;;;15.50;1.00;;;;;;5131775;27;20449;-71
2022/07/08 03:10:11;;;;;;;7.50;1.60;;;15.60;99.90;;;;;;5131083;27;20946;-71
2022/07/08 03:12:38;;;;;;;7.93;1.80;;;15.70;99.90;;;;;;5145047;27;20896;-71
2022/07/08 03:15:05;;;;;;;7.57;1.67;;;15.60;99.90;;;;;;5131376;27;20451;-71
2022/07/08 03:17:32;;;;;;;8.17;1.30;;;15.70;99.90;;;;;;5131648;27;20454;-71
2022/07/08 03:19:59;;;;;;;8.47;2.20;;;15.60;99.90;;;;;;5131117;27;20527;-71
2022/07/08 03:22:27;;;;;;;8.63;1.73;;;15.70;99.90;;;;;;5132383;27;20443;-71
2022/07/08 03:24:54;;;;;;;9.73;1.67;;;15.60;99.90;;;;;;5131747;28;20472;-72
2022/07/08 03:27:21;;;;;;;13.53;2.20;;;15.40;99.90;;;;;;5133644;28;20529;-73
2022/07/08 03:29:48;;;;;;;9.77;1.50;;;15.00;1.00;;;;;;5133454;27;21033;-72
2022/07/08 03:32:14;;;;;;;6.80;1.23;;;15.20;1.00;;;;;;5136688;27;20825;-72
2022/07/08 03:34:41;;;;;;;7.50;1.57;;;15.20;1.00;;;;;;5138609;27;20475;-73
2022/07/08 03:37:08;;;;;;;7.60;1.60;;;15.30;1.00;;;;;;5137669;27;20453;-73
2022/07/08 03:39:36;;;;;;;10.50;1.80;;;15.30;1.00;;;;;;5138816;27;20454;-73
2022/07/08 03:42:03;;;;;;;7.70;1.50;;;14.90;1.00;;;;;;5137367;27;20872;-73
2022/07/08 03:44:29;;;;;;;7.03;1.60;;;15.10;1.00;;;;;;5137867;27;20439;-73
2022/07/08 03:46:56;;;;;;;8.13;1.70;;;15.00;1.00;;;;;;5135049;27;20890;-72
2022/07/08 03:49:23;;;;;;;7.47;1.70;;;15.20;1.00;;;;;;5136087;27;20443;-73
2022/07/08 03:51:50;;;;;;;8.90;1.93;;;;;;;;;;5135279;27;20493;-72
2022/07/08 03:54:17;;;;;;;9.13;1.60;;;;;;;;;;5135653;27;20451;-72
2022/07/08 03:56:46;;;;;;;7.80;1.70;;;15.20;1.00;;;;;;5134939;27;20448;-72
2022/07/08 03:59:12;;;;;;;6.93;1.53;;;15.30;1.00;;;;;;5135103;27;20865;-72
2022/07/08 04:01:39;;;;;;;7.23;1.40;;;15.10;1.00;;;;;;5135245;27;20450;-72
2022/07/08 04:04:06;;;;;;;8.80;2.07;;;15.20;1.00;;;;;;5135240;27;20447;-72
2022/07/08 04:06:33;;;;;;;7.20;1.57;;;15.00;1.00;;;;;;5135604;27;20442;-73
2022/07/08 04:09:00;;;;;;;6.80;1.30;;;14.90;1.00;;;;;;5134742;27;20448;-72
2022/07/08 04:11:27;;;;;;;7.60;1.50;;;14.60;1.00;;;;;;5139329;27;20446;-72
2022/07/08 04:13:56;;;;;;;8.13;1.83;;;15.00;1.00;;;;;;5144311;27;20507;-72
2022/07/08 04:16:23;;;;;;;12.20;2.00;;;15.30;1.00;;;;;;5134734;27;20510;-72
2022/07/08 04:18:50;;;;;;;9.00;1.73;;;15.50;1.00;;;;;;5134534;27;20457;-73
2022/07/08 04:21:17;;;;;;;7.00;1.60;;;;;;;;;;5133265;27;20446;-72
2022/07/08 04:23:44;;;;;;;8.70;1.50;;;;;;;;;;5134227;27;20460;-68
2022/07/08 04:26:12;;;;;;;7.17;1.40;;;;;;;;;;5134942;27;20871;-69
2022/07/08 04:28:39;;;;;;;8.70;1.30;;;;;;;;;;5134902;27;20448;-70
2022/07/08 04:31:08;;;;;;;8.70;1.77;;;;;;;;;;5134481;27;20439;-72
2022/07/08 04:33:35;;;;;;;9.83;1.60;;;;;;;;;;5135048;27;20510;-72
2022/07/08 04:36:02;;;;;;;6.80;1.30;;;;;;;;;;5135164;27;20876;-72
2022/07/08 04:38:29;;;;;;;7.50;1.73;;;;;;;;;;5134680;27;20500;-72
2022/07/08 04:40:56;;;;;;;7.80;1.73;;;;;;;;;;5134221;27;20445;-72
2022/07/08 04:43:23;;;;;;;7.03;1.50;;;;;;;;;;5135514;27;20449;-71
2022/07/08 04:45:50;;;;;;;10.40;1.33;;;;;;;;;;5123737;27;20468;-73
2022/07/08 04:48:19;;;;;;;9.17;1.60;;;;;;;;;;5134219;27;20453;-72
2022/07/08 04:50:46;;;;;;;7.47;1.60;;;;;;;;;;5135161;27;21217;-74
2022/07/08 04:53:13;;;;;;;7.80;1.90;;;;;;;;;;5134755;27;20469;-76
2022/07/08 04:55:40;;;;;;;8.47;1.90;;;;;;;;;;5136863;27;20465;-77
2022/07/08 04:58:08;;;;;;;9.80;2.00;;;;;;;;;;5133662;27;20509;-77
2022/07/08 05:00:35;;;;;;;12.33;2.30;;;;;;;;;;5134626;27;20451;-74
2022/07/08 05:03:02;;;;;;;8.73;1.50;;;;;;;;;;5134093;27;20467;-74
2022/07/08 05:05:31;;;;;;;7.77;1.90;;;;;;;;;;5134505;27;20447;-74
2022/07/08 05:07:59;;;;;;;6.80;1.40;;;;;;;;;;5133555;27;20888;-72
2022/07/08 05:10:26;;;;;;;6.97;1.40;;;;;;;;;;5133345;27;20439;-70
2022/07/08 05:12:53;;;;;;;8.30;1.70;;;;;;;;;;5146244;27;20980;-70
2022/07/08 05:15:20;;;;;;;10.27;1.80;;;;;;;;;;5133455;27;20944;-69
2022/07/08 05:17:48;;;;;;;8.30;1.40;;;;;;;;;;5134388;27;20454;-69
2022/07/08 05:20:15;;;;;;;8.00;1.43;;;;;;;;;;5133562;27;20450;-69
2022/07/08 05:22:44;;;;;;;9.93;1.30;;;;;;;;;;5134173;27;20445;-69
2022/07/08 05:25:11;;;;;;;8.20;1.40;;;;;;;;;;5133444;27;20446;-69
2022/07/08 05:27:39;;;;;;;7.07;1.53;;;;;;;;;;5134254;27;20530;-69
2022/07/08 05:30:07;;;;;;;7.30;1.30;;;;;;;;;;5133164;27;20484;-69
2022/07/08 05:32:34;;;;;;;10.13;1.57;;;;;;;;;;5134094;27;20479;-69
2022/07/08 05:35:02;;;;;;;7.10;1.50;;;;;;;;;;5133191;27;20474;-70
2022/07/08 05:37:29;;;;;;;11.40;1.50;;;;;;;;;;5133786;27;20454;-69
2022/07/08 05:39:58;;;;;;;7.17;1.43;;;;;;;;;;5133157;27;20440;-70
2022/07/08 05:42:25;;;;;;;8.43;1.47;;;;;;;;;;5134103;27;20470;-69
2022/07/08 05:44:52;;;;;;;7.40;1.27;;;;;;;;;;5134180;27;20530;-70
2022/07/08 05:47:19;;;;;;;8.20;1.60;;;;;;;;;;5133357;27;20532;-70
2022/07/08 05:49:46;;;;;;;11.43;1.57;;;;;;;;;;5133654;27;20542;-70
2022/07/08 05:52:14;;;;;;;7.40;1.47;;;;;;;;;;5133245;27;20452;-70
2022/07/08 05:54:45;;;;;;;7.40;1.30;;;;;;;;;;5132574;27;20447;-70
2022/07/08 05:57:13;;;;;;;7.70;1.20;;;;;;;;;;5133285;27;20841;-70
2022/07/08 05:59:41;;;;;;;8.93;1.63;;;;;;;;;;5133286;27;20453;-70
2022/07/08 06:02:08;;;;;;;8.43;1.30;;;;;;;;;;5133049;27;20460;-70
2022/07/08 06:04:35;;;;;;;8.77;1.57;;;;;;;;;;5133325;27;21017;-70
2022/07/08 06:07:03;;;;;;;7.50;1.27;;;;;;;;;;5133230;27;20460;-70
2022/07/08 06:09:30;;;;;;;9.73;1.33;;;;;;;;;;5133186;27;20789;-70
2022/07/08 06:11:57;;;;;;;7.97;1.37;;;;;;;;;;5140991;27;20497;-70
2022/07/08 06:14:26;;;;;;;7.70;1.27;;;;;;;;;;5137764;27;20550;-70
2022/07/08 06:16:53;;;;;;;8.30;1.30;;;;;;;;;;5133581;27;20451;-70
2022/07/08 06:19:20;;;;;;;8.57;1.43;;;;;;;;;;5132056;27;20926;-70
2022/07/08 06:21:47;;;;;;;10.00;1.17;;;;;;;;;;5133460;27;20804;-70
2022/07/08 06:24:15;;;;;;;9.00;1.70;;;;;;;;;;5132397;27;20479;-70
2022/07/08 06:26:43;;;;;;;7.27;1.20;;;;;;;;;;5133205;27;20530;-70
2022/07/08 06:29:11;;;;;;;8.93;1.30;;;;;;;;;;5132234;27;20452;-70
2022/07/08 06:31:39;;;;;;;8.53;1.17;;;;;;;;;;5133157;27;20460;-70
2022/07/08 06:34:06;;;;;;;8.73;1.40;;;;;;;;;;5131719;27;20491;-70
2022/07/08 06:36:34;;;;;;;8.60;1.90;;;;;;;;;;5132694;27;20447;-70
2022/07/08 06:39:01;;;;;;;7.40;0.93;;;;;;;;;;5131492;27;20478;-70
2022/07/08 06:41:28;;;;;;;8.50;1.40;;;;;;;;;;5133189;27;20538;-71
2022/07/08 06:43:55;;;;;;;7.60;1.20;;;;;;;;;;5132746;27;20809;-71
2022/07/08 06:46:22;;;;;;;7.57;1.20;;;;;;;;;;5133059;27;20450;-71
2022/07/08 06:48:51;;;;;;;10.17;1.10;;;;;;;;;;5132308;27;20445;-71
2022/07/08 06:51:18;;;;;;;7.67;1.00;;;;;;;;;;5132150;27;20443;-70
2022/07/08 06:56:30;;;;;;;10.37;1.07;;;;;;;;;;5132406;27;20418;-69
2022/07/08 06:58:57;;;;;;;8.30;1.60;;;;;;;;;;5131834;27;20446;-70
2022/07/08 07:01:24;;;;;;;9.03;1.20;;;;;;;;;;5132078;27;20457;-69
2022/07/08 07:03:52;;;;;;;10.90;1.50;;;;;;;;;;5132993;27;20541;-69
2022/07/08 07:06:19;;;;;;;11.17;1.27;;;;;;;;;;5131877;27;20454;-69
2022/07/08 07:08:47;;;;;;;8.63;1.30;;;;;;;;;;5132010;27;20481;-69
2022/07/08 07:11:15;;;;;;;10.13;1.67;;;;;;;;;;5134040;27;20535;-70
2022/07/08 07:13:42;;;;;;;8.73;1.27;;;;;;;;;;5142191;27;20529;-70
2022/07/08 07:16:09;;;;;;;8.87;1.10;;;;;;;;;;5132044;27;20450;-70
2022/07/08 07:18:36;;;;;;;8.03;1.20;;;;;;;;;;5131655;27;20444;-71
2022/07/08 07:21:05;;;;;;;7.77;0.90;;;;;;;;;;5131874;27;20453;-69
2022/07/08 07:23:32;;;;;;;8.73;1.33;;;;;;;;;;5132009;28;20449;-70
2022/07/08 07:25:59;;;;;;;8.40;1.23;;;;;;;;;;5131235;28;20461;-71
2022/07/08 07:28:27;;;;;;;10.77;1.50;;;;;;;;;;5132280;28;20539;-70
2022/07/08 07:30:54;;;;;;;9.03;1.20;;;;;;;;;;5131662;28;20479;-71
2022/07/08 07:33:21;;;;;;;8.90;1.60;;;;;;;;;;5131867;28;20899;-69
2022/07/08 07:35:48;;;;;;;8.47;1.10;;;;;;;;;;5132172;28;20446;-71
2022/07/08 07:38:17;;;;;;;8.70;1.27;;;;;;;;;;5131658;28;20717;-71
2022/07/08 07:40:44;;;;;;;8.20;1.00;;;;;;;;;;5131731;28;20818;-69
2022/07/08 07:43:11;;;;;;;9.63;1.10;;;;;;;;;;5131415;28;20447;-69
2022/07/08 07:45:38;;;;;;;9.40;1.30;;;15.40;99.90;;;;;;5131788;28;20926;-69
2022/07/08 07:48:05;;;;;;;13.20;1.30;;;17.00;99.90;;;;;;5131243;28;20453;-69
2022/07/08 07:50:33;;;;;;;8.20;1.07;;;17.30;99.90;;;;;;5131021;28;20447;-70
2022/07/08 07:52:59;;;;;;;9.37;1.20;;;17.30;99.90;;;;;;5130959;28;20461;-71
2022/07/08 07:55:28;;;;;;;8.80;1.67;;;17.50;99.90;;;;;;5131952;28;20465;-69
2022/07/08 07:57:55;;;;;;;11.30;1.47;;;17.60;99.90;;;;;;5131745;28;20553;-70
2022/07/08 08:00:22;;;;;;;8.57;1.03;;;17.50;99.90;;;;;;5118153;28;21017;-70
2022/07/08 08:02:49;;;;;;;8.33;1.00;;;17.60;99.90;;;;;;5131455;28;20490;-71
2022/07/08 08:05:16;;;;;;;8.40;1.00;;;17.70;99.90;;;;;;5131049;28;20458;-70
2022/07/08 08:07:43;;;;;;;12.40;1.27;;;17.70;99.90;;;;;;5131895;28;20538;-70
2022/07/08 08:10:13;;;;;;;9.30;1.00;;;17.90;99.90;;;;;;5130557;28;20439;-70
2022/07/08 08:12:42;;;;;;;10.43;1.47;;;17.70;99.90;;;;;;5144365;27;20446;-71
2022/07/08 08:15:10;;;;;;;9.80;1.83;;;17.80;99.90;;;;;;5130911;28;20852;-70
2022/07/08 08:17:37;;;;;;;9.10;1.00;;;17.90;99.90;;;;;;5134401;27;20447;-70
2022/07/08 08:20:05;;;;;;;9.83;1.10;;;17.90;99.90;;;;;;5134496;27;20447;-70
2022/07/08 08:22:33;;;;;;;9.53;1.20;;;17.80;99.90;;;;;;5135401;27;20869;-70
2022/07/08 08:25:00;;;;;;;9.20;1.00;;;;;;;;;;5134908;27;20450;-70
2022/07/08 08:27:27;;;;;;;10.50;1.27;;;;;;;;;;5135517;27;20499;-70
2022/07/08 08:29:56;;;;;;;11.77;1.43;;;;;;;;;;5135278;27;20529;-69
2022/07/08 08:32:23;;;;;;;10.27;1.30;;;;;;;;;;5135252;27;20455;-70
2022/07/08 08:34:50;;;;;;;9.80;1.17;;;;;;;;;;5134871;27;20494;-69
2022/07/08 08:37:17;;;;;;;10.80;1.07;;;;;;;;;;5134707;27;20457;-69
2022/07/08 08:39:44;;;;;;;10.17;1.33;;;;;;;;;;5134446;27;20447;-69
2022/07/08 08:42:11;;;;;;;10.67;1.30;;;;;;;;;;5134739;27;20443;-70
2022/07/08 08:44:39;;;;;;;9.30;1.23;;;;;;;;;;5135673;27;20446;-69
2022/07/08 08:47:09;;;;;;;10.23;1.23;;;;;;;;;;5134917;27;20938;-71
2022/07/08 08:49:36;;;;;;;8.93;1.20;;;;;;;;;;5135600;27;20447;-68
2022/07/08 08:52:04;;;;;;;11.63;1.10;;;;;;;;;;5134700;27;20459;-70
2022/07/08 08:54:34;;;;;;;12.37;1.27;;;18.20;99.90;;;;;;5134524;27;20481;-69
2022/07/08 08:57:02;;;;;;;10.13;1.00;;;17.50;94.60;;;;;;5134382;27;20446;-69
2022/07/08 08:59:30;;;;;;;8.97;1.00;;;17.60;96.20;;;;;;5134546;27;20551;-70
2022/07/08 09:01:57;;;;;;;9.90;1.30;;;17.90;95.80;;;;;;5120615;27;20452;-69
2022/07/08 09:04:26;;;;;;;10.80;1.37;;;18.20;93.80;;;;;;5134827;27;20867;-71
2022/07/08 09:06:53;;;;;;;9.50;1.20;;;18.50;91.30;;;;;;5134543;27;20447;-70
2022/07/08 09:09:20;;;;;;;10.83;0.97;;;18.50;85.00;;;;;;5133101;27;20451;-70
2022/07/08 09:11:47;;;;;;;9.20;1.10;;;18.70;86.10;;;;;;5141121;27;20449;-70
2022/07/08 09:14:16;;;;;;;8.97;1.20;;;18.90;83.80;;;;;;5139925;27;20921;-71
2022/07/08 09:17:09;;;;;;;9.70;1.17;;;19.10;92.10;;;;;;5134150;27;20443;-71
2022/07/08 09:19:38;;;;;;;9.30;1.30;;;19.20;96.70;;;;;;5134033;27;20580;-70
2022/07/08 09:22:07;;;;;;;8.90;1.10;;;19.10;83.20;;;;;;5133778;27;20515;-71
2022/07/08 09:24:34;;;;;;;8.40;0.90;;;18.90;76.50;;;;;;5134128;27;20447;-70
2022/07/08 09:27:05;;;;;;;9.47;1.40;;;18.90;73.50;;;;;;5133712;27;20446;-70
2022/07/08 09:29:32;;;;;;;9.70;1.20;;;19.00;70.40;;;;;;5133794;27;20431;-70
2022/07/08 09:32:10;;;;;;;8.50;1.00;;;18.80;73.10;;;;;;5133172;27;20799;-71
2022/07/08 09:34:39;;;;;;;10.20;1.50;;;18.90;73.00;;;;;;5134208;27;20494;-70
2022/07/08 09:37:11;;;;;;;9.73;1.20;;;19.00;70.10;;;;;;5133569;27;20807;-70
2022/07/08 09:39:38;;;;;;;10.87;1.30;;;18.90;69.20;;;;;;5133710;27;20450;-70
2022/07/08 09:42:08;;;;;;;8.70;1.30;;;19.10;70.30;;;;;;5133531;27;20534;-70
2022/07/08 09:44:35;;;;;;;8.57;1.27;;;19.40;68.30;;;;;;5133766;27;20467;-70
2022/07/08 09:47:08;;;;;;;8.80;1.40;;;19.50;61.90;;;;;;5133297;27;20443;-70
2022/07/08 09:49:35;;;;;;;12.07;1.53;;;19.50;58.40;;;;;;5133470;27;20805;-70
2022/07/08 09:52:04;;;;;;;9.87;0.90;;;19.60;58.00;;;;;;5133187;27;20465;-71
2022/07/08 09:54:32;;;;;;;10.73;1.60;;;19.70;56.00;;;;;;5133608;27;20475;-71
2022/07/08 09:57:00;;;;;;;8.80;1.10;;;20.00;56.80;;;;;;5133140;27;20495;-70
2022/07/08 09:59:28;;;;;;;10.57;1.30;;;20.00;55.20;;;;;;5133422;27;20444;-70
2022/07/08 10:01:55;;;;;;;9.97;1.57;;;19.80;54.80;;;;;;5133422;27;20541;-70
2022/07/08 10:04:24;;;;;;;8.60;1.23;;;19.80;70.30;;;;;;5133279;27;20450;-70
2022/07/08 10:06:51;;;;;;;9.43;1.10;;;20.00;54.50;;;;;;5120533;27;20443;-70
2022/07/08 10:09:20;;;;;;;9.30;1.03;;;20.10;51.90;;;;;;5131492;27;20444;-71
2022/07/08 10:11:48;;;;;;;9.00;1.17;;;20.00;50.60;;;;;;5139608;27;20456;-70
2022/07/08 10:14:15;;;;;;;8.77;1.20;;;19.80;49.90;;;;;;5137826;27;20518;-70
2022/07/08 10:16:43;;;;;;;10.00;1.20;;;19.70;52.40;;;;;;5133650;27;20537;-70
2022/07/08 10:19:14;;;;;;;8.70;1.20;;;19.80;53.20;;;;;;5132507;27;20447;-71
2022/07/08 10:21:44;;;;;;;10.23;1.63;;;20.20;47.10;;;;;;5133105;27;20439;-68
2022/07/08 10:24:17;;;;;;;10.07;1.23;;;19.60;44.90;;;;;;5132404;27;20933;-69
2022/07/08 10:26:46;;;;;;;9.20;1.20;;;19.80;47.40;;;;;;5132915;27;20435;-69
2022/07/08 10:29:13;;;;;;;10.13;1.80;;;20.10;46.90;;;;;;5132237;27;20469;-70
2022/07/08 10:31:44;;;;;;;8.37;1.03;;;;;;;;;;5132992;27;20461;-71
2022/07/08 10:34:12;;;;;;;10.97;1.30;;;;;;;;;;5132254;27;20487;-71
2022/07/08 10:36:43;;;;;;;8.90;1.00;;;;;;;;;;5133020;27;20443;-70
2022/07/08 10:39:13;;;;;;;8.20;0.97;;;;;;;;;;5131675;27;20447;-71
2022/07/08 10:41:40;;;;;;;9.00;1.37;;;;;;;;;;5132649;27;20809;-71
2022/07/08 10:44:09;;;;;;;8.97;1.00;;;;;;;;;;5132054;27;20934;-70
2022/07/08 10:46:36;;;;;;;10.10;1.00;;;;;;;;;;5132867;27;20481;-70
2022/07/08 10:49:03;;;;;;;8.67;1.07;;;;;;;;;;5131592;27;20478;-70
2022/07/08 10:51:47;;;;;;;9.87;2.07;;;;;;;;;;5132661;27;20439;-71
2022/07/08 10:54:27;;;;;;;9.30;1.20;;;;;;;;;;5131929;27;20466;-70
2022/07/08 10:56:56;;;;;;;9.30;1.10;;;;;;;;;;5132351;27;20458;-70
2022/07/08 10:59:26;;;;;;;10.47;1.37;;;;;;;;;;5132489;27;20474;-70
2022/07/08 11:01:54;;;;;;;12.73;1.23;;;;;;;;;;5119321;27;20454;-70
2022/07/08 11:04:32;;;;;;;8.50;0.90;;;;;;;;;;5132722;27;20454;-70
2022/07/08 11:07:20;;;;;;;10.00;1.50;;;;;;;;;;5119421;27;20454;-70
2022/07/08 11:09:47;;;;;;;9.70;1.13;;;;;;;;;;5132158;27;20446;-70
2022/07/08 11:12:15;;;;;;;12.93;1.73;;;;;;;;;;5142418;27;20454;-70
2022/07/08 11:14:44;;;;;;;9.07;1.27;;;;;;;;;;5134083;27;20482;-70
2022/07/08 11:17:15;;;;;;;8.80;1.17;;;;;;;;;;5132212;27;20450;-70
2022/07/08 11:19:42;;;;;;;8.40;0.93;;;;;;;;;;5131761;27;20947;-70
2022/07/08 11:22:10;;;;;;;8.20;0.90;;;;;;;;;;5131792;27;20447;-70
2022/07/08 11:24:37;;;;;;;8.80;1.00;;;;;;;;;;5131904;27;20450;-69
2022/07/08 11:27:05;;;;;;;9.50;1.10;;;;;;;;;;5131501;28;20439;-69
2022/07/08 11:29:32;;;;;;;11.17;1.37;;;;;;;;;;5131804;28;20435;-69
2022/07/08 11:32:01;;;;;;;9.40;1.00;;;;;;;;;;5131456;28;20459;-69
2022/07/08 11:34:28;;;;;;;8.87;1.10;;;;;;;;;;5131807;28;20482;-69
2022/07/08 11:36:56;;;;;;;9.27;1.10;;;;;;;;;;5132101;28;20500;-70
2022/07/08 11:39:23;;;;;;;9.07;1.20;;;;;;;;;;5131598;28;20443;-70
2022/07/08 11:41:51;;;;;;;8.37;1.00;;;;;;;;;;5132259;28;20443;-70
2022/07/08 11:44:18;;;;;;;11.70;1.10;;;;;;;;;;5131300;28;21033;-69
2022/07/08 11:46:46;;;;;;;9.00;1.20;;;;;;;;;;5131938;28;20459;-69
2022/07/08 11:49:15;;;;;;;10.03;1.10;;;;;;;;;;5131107;28;20450;-69
2022/07/08 11:51:46;;;;;;;8.70;1.07;;;;;;;;;;5132912;27;21036;-69
2022/07/08 11:54:13;;;;;;;10.60;1.00;;;;;;;;;;5135619;27;20438;-69
2022/07/08 11:56:40;;;;;;;9.53;1.30;;;;;;;;;;5135893;27;20525;-69
2022/07/08 11:59:07;;;;;;;8.90;1.07;;;;;;;;;;5135058;27;20449;-70
2022/07/08 12:01:35;;;;;;;10.20;1.00;;;;;;;;;;5136176;27;20469;-69
2022/07/08 12:04:05;;;;;;;9.90;1.20;;;;;;;;;;5135377;27;20449;-70
2022/07/08 12:06:34;;;;;;;9.53;1.00;;;;;;;;;;5136030;27;20447;-70
2022/07/08 12:09:08;;;;;;;8.27;1.03;;;;;;;;;;5135117;27;20447;-70
2022/07/08 12:11:40;;;;;;;9.57;1.43;;;;;;;;;;5140847;27;20450;-69
2022/07/08 12:14:08;;;;;;;9.77;1.03;;;;;;;;;;5141528;27;20534;-69
2022/07/08 12:16:36;;;;;;;9.37;1.17;;;;;;;;;;5135789;27;20458;-70
2022/07/08 12:19:04;;;;;;;8.93;1.13;;;;;;;;;;5134253;27;20446;-70
2022/07/08 12:21:31;;;;;;;9.57;0.90;;;;;;;;;;5135408;27;20453;-70
2022/07/08 12:24:00;;;;;;;8.27;1.00;;;;;;;;;;5134924;27;20446;-71
2022/07/08 12:26:28;;;;;;;9.93;0.93;;;;;;;;;;5135385;27;20495;-70
2022/07/08 12:28:56;;;;;;;11.90;1.00;;;;;;;;;;5134804;27;20950;-70
2022/07/08 12:31:32;;;;;;;9.70;1.40;;;;;;;;;;5135586;27;20439;-70
2022/07/08 12:34:03;;;;;;;9.10;1.07;;;;;;;;;;5134577;27;20468;-69
2022/07/08 12:36:30;;;;;;;8.67;0.97;;;;;;;;;;5135003;27;20980;-70
2022/07/08 12:38:57;;;;;;;9.33;1.40;;;;;;;;;;5134327;27;20490;-71
2022/07/08 12:41:26;;;;;;;8.77;1.13;;;;;;;;;;5135359;27;20473;-69
2022/07/08 12:43:53;;;;;;;8.87;0.90;;;;;;;;;;5135255;27;20443;-71
2022/07/08 12:46:20;;;;;;;9.30;1.10;;;;;;;;;;5134425;27;20949;-70
2022/07/08 12:48:47;;;;;;;8.47;1.10;;;;;;;;;;5134311;27;20455;-70
2022/07/08 12:51:14;;;;;;;9.60;1.30;;;;;;;;;;5134570;27;20443;-71
2022/07/08 12:53:41;;;;;;;11.33;1.60;;;;;;;;;;5134980;27;20454;-71
2022/07/08 12:56:08;;;;;;;7.40;0.90;;;;;;;;;;5134174;27;20531;-71
2022/07/08 12:58:37;;;;;;;9.77;1.47;;;;;;;;;;5134502;27;20771;-70
2022/07/08 13:01:04;;;;;;;9.00;1.00;;;;;;;;;;5134185;27;20778;-71
2022/07/08 13:03:31;;;;;;;10.00;1.40;;;;;;;;;;5134114;27;20475;-71
2022/07/08 13:05:59;;;;;;;7.57;1.20;;;;;;;;;;5133620;27;20454;-68
2022/07/08 13:08:26;;;;;;;7.70;1.03;;;;;;;;;;5133167;27;20455;-69
2022/07/08 13:10:53;;;;;;;8.00;0.90;;;;;;;;;;5130500;27;20459;-69
2022/07/08 13:13:21;;;;;;;7.10;1.10;;;;;;;;;;5132159;27;20443;-69
2022/07/08 13:15:49;;;;;;;9.53;0.90;;;;;;;;;;5131551;27;20486;-69
2022/07/08 13:18:16;;;;;;;7.20;0.90;;;;;;;;;;5118566;27;21018;-69
2022/07/08 13:20:43;;;;;;;11.23;0.90;;;;;;;;;;5132102;27;20447;-69
2022/07/08 13:23:12;;;;;;;7.20;1.03;;;;;;;;;;5130407;27;20453;-69
2022/07/08 13:25:39;;;;;;;7.13;1.10;;;;;;;;;;5131963;27;20830;-69
2022/07/08 13:28:06;;;;;;;7.30;1.03;;;;;;;;;;5130994;27;20451;-69
2022/07/08 13:30:34;;;;;;;7.00;1.00;;;;;;;;;;5131224;27;20775;-69
2022/07/08 13:33:02;;;;;;;7.47;1.00;;;;;;;;;;5134336;27;20459;-69
2022/07/08 13:35:29;;;;;;;7.50;1.20;;;;;;;;;;5132040;27;20471;-69
2022/07/08 13:37:56;;;;;;;8.30;1.17;;;;;;;;;;5131548;27;20818;-69
2022/07/08 13:40:24;;;;;;;7.77;1.10;;;;;;;;;;5131662;27;20913;-69
2022/07/08 13:42:51;;;;;;;8.47;3.17;;;;;;;;;;5131889;27;20478;-69
2022/07/08 13:45:18;;;;;;;7.77;0.90;;;;;;;;;;5131470;27;20439;-69
2022/07/08 13:47:45;;;;;;;7.53;1.40;;;;;;;;;;5131465;27;20500;-69
2022/07/08 13:50:14;;;;;;;7.83;1.00;;;;;;;;;;5129927;27;20836;-69
2022/07/08 13:52:41;;;;;;;8.47;1.10;;;;;;;;;;5131247;27;20480;-69
2022/07/08 13:55:09;;;;;;;7.40;0.90;;;;;;;;;;5130257;27;20478;-69
2022/07/08 13:57:36;;;;;;;8.00;1.00;;;;;;;;;;5131594;27;20443;-69
2022/07/08 14:00:06;;;;;;;7.80;1.10;;;20.40;42.10;;;;;;5129972;27;20443;-69
2022/07/08 14:02:34;;;;;;;9.23;1.30;;;;;;;;;;5131685;27;20823;-69
2022/07/08 14:05:01;;;;;;;7.87;1.50;;;;;;;;;;5130140;27;20457;-70
2022/07/08 14:07:30;;;;;;;8.60;1.00;;;;;;;;;;5130927;27;20447;-70